createdAt,value
2023-04-09T00:00:00.287Z,361.00
2023-04-09T00:01:00.257Z,382.00
2023-04-09T00:02:00.282Z,334.00
2023-04-09T00:03:00.302Z,318.00
2023-04-09T00:04:00.328Z,312.00
2023-04-09T00:05:00.213Z,288.00
2023-04-09T00:06:00.171Z,284.00
2023-04-09T00:07:00.276Z,284.00
2023-04-09T00:08:00.161Z,293.00
2023-04-09T00:09:00.151Z,295.00
2023-04-09T00:10:00.132Z,299.00
2023-04-09T00:11:00.143Z,295.00
2023-04-09T00:12:00.126Z,301.00
2023-04-09T00:13:00.095Z,310.00
2023-04-09T00:14:00.086Z,306.00
2023-04-09T00:15:00.050Z,326.00
2023-04-09T00:16:00.081Z,343.00
2023-04-09T00:17:00.043Z,370.00
2023-04-09T00:18:00.146Z,388.00
2023-04-09T00:19:00.008Z,394.00
2023-04-09T00:19:59.998Z,375.00
2023-04-09T00:20:59.984Z,351.00
2023-04-09T00:21:59.990Z,329.00
2023-04-09T00:22:59.966Z,323.00
2023-04-09T00:23:59.982Z,312.00
2023-04-09T00:24:59.938Z,312.00
2023-04-09T00:25:59.923Z,314.00
2023-04-09T00:26:59.903Z,326.00
2023-04-09T00:27:59.911Z,329.00
2023-04-09T00:28:59.900Z,338.00
2023-04-09T00:29:59.876Z,349.00
2023-04-09T00:30:59.871Z,342.00
2023-04-09T00:31:59.889Z,348.00
2023-04-09T00:32:59.864Z,350.00
2023-04-09T00:33:59.846Z,345.00
2023-04-09T00:34:59.818Z,334.00
2023-04-09T00:35:59.834Z,322.00
2023-04-09T00:36:59.776Z,322.00
2023-04-09T00:37:59.781Z,328.00
2023-04-09T00:38:59.770Z,314.00
2023-04-09T00:39:59.793Z,317.00
2023-04-09T00:40:59.728Z,332.00
2023-04-09T00:41:59.745Z,348.00
2023-04-09T00:42:59.715Z,412.00
2023-04-09T00:43:59.723Z,378.00
2023-04-09T00:44:59.699Z,358.00
2023-04-09T00:45:59.758Z,363.00
2023-04-09T00:46:59.677Z,359.00
2023-04-09T00:47:59.656Z,356.00
2023-04-09T00:48:59.651Z,325.00
2023-04-09T00:49:59.644Z,319.00
2023-04-09T00:50:59.610Z,299.00
2023-04-09T00:51:59.609Z,294.00
2023-04-09T00:52:59.589Z,287.00
2023-04-09T00:53:59.582Z,263.00
2023-04-09T00:54:59.589Z,264.00
2023-04-09T00:55:59.547Z,265.00
2023-04-09T00:56:59.534Z,260.00
2023-04-09T00:57:59.548Z,259.00
2023-04-09T00:58:59.526Z,261.00
2023-04-09T00:59:59.509Z,255.00
2023-04-09T01:00:59.512Z,263.00
2023-04-09T01:01:59.533Z,267.00
2023-04-09T01:02:59.534Z,287.00
2023-04-09T01:03:59.471Z,288.00
2023-04-09T01:04:59.441Z,295.00
2023-04-09T01:05:59.444Z,319.00
2023-04-09T01:06:59.421Z,347.00
2023-04-09T01:07:59.402Z,361.00
2023-04-09T01:08:59.406Z,360.00
2023-04-09T01:09:59.357Z,354.00
2023-04-09T01:10:59.380Z,357.00
2023-04-09T01:11:59.342Z,357.00
2023-04-09T01:12:59.356Z,352.00
2023-04-09T01:13:59.324Z,362.00
2023-04-09T01:14:59.293Z,376.00
2023-04-09T01:15:59.303Z,377.00
2023-04-09T01:16:59.349Z,361.00
2023-04-09T01:17:59.329Z,365.00
2023-04-09T01:18:59.236Z,363.00
2023-04-09T01:19:59.252Z,368.00
2023-04-09T01:20:59.240Z,374.00
2023-04-09T01:21:59.208Z,363.00
2023-04-09T01:22:59.400Z,380.00
2023-04-09T01:23:59.214Z,380.00
2023-04-09T01:24:59.157Z,388.00
2023-04-09T01:25:59.158Z,379.00
2023-04-09T01:26:59.145Z,389.00
2023-04-09T01:27:59.144Z,350.00
2023-04-09T01:28:59.124Z,329.00
2023-04-09T01:29:59.104Z,312.00
2023-04-09T01:30:59.164Z,327.00
2023-04-09T01:31:59.109Z,350.00
2023-04-09T01:32:59.109Z,351.00
2023-04-09T01:33:59.079Z,365.00
2023-04-09T01:34:59.037Z,379.00
2023-04-09T01:35:59.069Z,343.00
2023-04-09T01:36:59.048Z,345.00
2023-04-09T01:37:59.004Z,357.00
2023-04-09T01:38:59.042Z,357.00
2023-04-09T01:39:58.996Z,349.00
2023-04-09T01:40:58.979Z,348.00
2023-04-09T01:41:58.947Z,364.00
2023-04-09T01:42:58.978Z,393.00
2023-04-09T01:43:58.950Z,405.00
2023-04-09T01:44:58.939Z,409.00
2023-04-09T01:45:58.912Z,416.00
2023-04-09T01:46:58.904Z,385.00
2023-04-09T01:47:58.920Z,322.00
2023-04-09T01:48:58.919Z,309.00
2023-04-09T01:49:58.872Z,296.00
2023-04-09T01:50:58.848Z,285.00
2023-04-09T01:51:58.814Z,267.00
2023-04-09T01:52:58.809Z,262.00
2023-04-09T01:53:58.789Z,274.00
2023-04-09T01:54:58.819Z,267.00
2023-04-09T01:55:58.798Z,268.00
2023-04-09T01:56:58.781Z,271.00
2023-04-09T01:57:58.738Z,269.00
2023-04-09T01:58:58.752Z,289.00
2023-04-09T01:59:58.716Z,297.00
2023-04-09T02:00:58.739Z,293.00
2023-04-09T02:01:58.783Z,302.00
2023-04-09T02:02:58.829Z,282.00
2023-04-09T02:03:58.859Z,303.00
2023-04-09T02:04:58.693Z,329.00
2023-04-09T02:05:58.660Z,341.00
2023-04-09T02:06:58.648Z,337.00
2023-04-09T02:07:58.614Z,341.00
2023-04-09T02:08:58.623Z,330.00
2023-04-09T02:09:58.612Z,314.00
2023-04-09T02:10:58.603Z,312.00
2023-04-09T02:11:58.571Z,326.00
2023-04-09T02:12:58.558Z,366.00
2023-04-09T02:13:58.551Z,376.00
2023-04-09T02:14:58.547Z,377.00
2023-04-09T02:15:58.562Z,387.00
2023-04-09T02:16:58.534Z,399.00
2023-04-09T02:17:58.559Z,401.00
2023-04-09T02:18:58.507Z,396.00
2023-04-09T02:19:58.476Z,390.00
2023-04-09T02:20:58.462Z,386.00
2023-04-09T02:21:58.460Z,380.00
2023-04-09T02:22:58.435Z,360.00
2023-04-09T02:23:58.430Z,335.00
2023-04-09T02:24:58.425Z,340.00
2023-04-09T02:25:58.408Z,345.00
2023-04-09T02:26:58.406Z,337.00
2023-04-09T02:27:58.376Z,334.00
2023-04-09T02:28:58.372Z,326.00
2023-04-09T02:29:58.372Z,331.00
2023-04-09T02:30:58.361Z,336.00
2023-04-09T02:31:58.331Z,343.00
2023-04-09T02:32:58.337Z,336.00
2023-04-09T02:33:58.323Z,311.00
2023-04-09T02:34:58.266Z,286.00
2023-04-09T02:35:58.288Z,280.00
2023-04-09T02:36:58.266Z,270.00
2023-04-09T02:37:58.255Z,268.00
2023-04-09T02:38:58.236Z,271.00
2023-04-09T02:39:58.208Z,274.00
2023-04-09T02:40:58.205Z,274.00
2023-04-09T02:41:58.198Z,275.00
2023-04-09T02:42:58.193Z,291.00
2023-04-09T02:43:58.153Z,291.00
2023-04-09T02:44:58.182Z,293.00
2023-04-09T02:45:58.133Z,295.00
2023-04-09T02:46:58.137Z,296.00
2023-04-09T02:47:58.125Z,286.00
2023-04-09T02:48:58.128Z,293.00
2023-04-09T02:49:58.129Z,300.00
2023-04-09T02:50:58.072Z,295.00
2023-04-09T02:51:58.068Z,290.00
2023-04-09T02:52:58.046Z,290.00
2023-04-09T02:53:58.046Z,284.00
2023-04-09T02:54:58.049Z,284.00
2023-04-09T02:55:58.051Z,306.00
2023-04-09T02:56:57.997Z,307.00
2023-04-09T02:57:57.968Z,320.00
2023-04-09T02:58:57.970Z,348.00
2023-04-09T02:59:57.965Z,376.00
2023-04-09T03:00:57.947Z,378.00
2023-04-09T03:01:57.982Z,379.00
2023-04-09T03:02:58.085Z,389.00
2023-04-09T03:03:58.053Z,384.00
2023-04-09T03:04:57.905Z,384.00
2023-04-09T03:05:57.885Z,372.00
2023-04-09T03:06:57.878Z,364.00
2023-04-09T03:07:57.872Z,351.00
2023-04-09T03:08:57.857Z,367.00
2023-04-09T03:09:57.831Z,354.00
2023-04-09T03:10:57.835Z,343.00
2023-04-09T03:11:57.812Z,340.00
2023-04-09T03:12:57.796Z,338.00
2023-04-09T03:13:57.768Z,348.00
2023-04-09T03:14:57.785Z,357.00
2023-04-09T03:15:57.786Z,387.00
2023-04-09T03:16:57.749Z,394.00
2023-04-09T03:17:57.777Z,409.00
2023-04-09T03:18:57.739Z,401.00
2023-04-09T03:19:57.726Z,379.00
2023-04-09T03:20:57.688Z,369.00
2023-04-09T03:21:57.686Z,375.00
2023-04-09T03:22:57.689Z,382.00
2023-04-09T03:23:57.686Z,379.00
2023-04-09T03:24:57.652Z,367.00
2023-04-09T03:25:57.657Z,372.00
2023-04-09T03:26:57.650Z,389.00
2023-04-09T03:27:57.607Z,391.00
2023-04-09T03:28:57.624Z,396.00
2023-04-09T03:29:57.593Z,415.00
2023-04-09T03:30:57.623Z,417.00
2023-04-09T03:31:57.561Z,437.00
2023-04-09T03:32:57.562Z,410.00
2023-04-09T03:33:57.573Z,306.00
2023-04-09T03:34:57.542Z,300.00
2023-04-09T03:35:57.524Z,295.00
2023-04-09T03:36:57.532Z,293.00
2023-04-09T03:37:57.462Z,286.00
2023-04-09T03:38:57.491Z,278.00
2023-04-09T03:39:57.475Z,290.00
2023-04-09T03:40:57.471Z,290.00
2023-04-09T03:41:57.414Z,288.00
2023-04-09T03:42:57.436Z,287.00
2023-04-09T03:43:57.405Z,295.00
2023-04-09T03:44:57.401Z,292.00
2023-04-09T03:45:57.401Z,295.00
2023-04-09T03:46:57.518Z,297.00
2023-04-09T03:47:58.026Z,290.00
2023-04-09T03:48:57.347Z,297.00
2023-04-09T03:49:57.332Z,286.00
2023-04-09T03:50:57.307Z,283.00
2023-04-09T03:51:57.302Z,284.00
2023-04-09T03:52:57.318Z,288.00
2023-04-09T03:53:57.279Z,315.00
2023-04-09T03:54:57.300Z,323.00
2023-04-09T03:55:57.265Z,324.00
2023-04-09T03:56:57.260Z,333.00
2023-04-09T03:57:57.229Z,350.00
2023-04-09T03:58:57.266Z,370.00
2023-04-09T03:59:57.204Z,371.00
2023-04-09T04:00:57.184Z,371.00
2023-04-09T04:01:57.295Z,356.00
2023-04-09T04:02:57.309Z,352.00
2023-04-09T04:03:57.287Z,359.00
2023-04-09T04:04:57.179Z,359.00
2023-04-09T04:05:57.206Z,361.00
2023-04-09T04:06:57.165Z,344.00
2023-04-09T04:07:57.178Z,339.00
2023-04-09T04:08:57.138Z,333.00
2023-04-09T04:09:57.130Z,330.00
2023-04-09T04:10:57.128Z,335.00
2023-04-09T04:11:57.086Z,377.00
2023-04-09T04:12:57.106Z,328.00
2023-04-09T04:13:57.081Z,342.00
2023-04-09T04:14:57.230Z,365.00
2023-04-09T04:15:57.026Z,381.00
2023-04-09T04:16:56.989Z,392.00
2023-04-09T04:17:57.099Z,388.00
2023-04-09T04:18:56.981Z,379.00
2023-04-09T04:19:56.941Z,399.00
2023-04-09T04:20:56.949Z,457.00
2023-04-09T04:21:56.943Z,454.00
2023-04-09T04:22:56.942Z,473.00
2023-04-09T04:23:56.988Z,481.00
2023-04-09T04:24:56.909Z,461.00
2023-04-09T04:25:56.920Z,463.00
2023-04-09T04:26:56.862Z,475.00
2023-04-09T04:27:56.874Z,471.00
2023-04-09T04:28:56.894Z,467.00
2023-04-09T04:29:56.862Z,464.00
2023-04-09T04:30:56.818Z,440.00
2023-04-09T04:31:56.878Z,429.00
2023-04-09T04:32:56.855Z,437.00
2023-04-09T04:33:56.744Z,442.00
2023-04-09T04:34:56.801Z,449.00
2023-04-09T04:35:56.741Z,448.00
2023-04-09T04:36:56.745Z,432.00
2023-04-09T04:37:56.723Z,425.00
2023-04-09T04:38:56.700Z,397.00
2023-04-09T04:39:56.692Z,392.00
2023-04-09T04:40:56.673Z,397.00
2023-04-09T04:41:56.670Z,405.00
2023-04-09T04:42:56.645Z,402.00
2023-04-09T04:43:56.673Z,415.00
2023-04-09T04:44:56.617Z,426.00
2023-04-09T04:45:56.659Z,442.00
2023-04-09T04:46:56.629Z,494.00
2023-04-09T04:47:56.653Z,498.00
2023-04-09T04:48:56.629Z,496.00
2023-04-09T04:49:56.572Z,483.00
2023-04-09T04:50:56.541Z,470.00
2023-04-09T04:51:56.528Z,473.00
2023-04-09T04:52:56.557Z,499.00
2023-04-09T04:53:56.499Z,507.00
2023-04-09T04:54:56.483Z,519.00
2023-04-09T04:55:56.489Z,525.00
2023-04-09T04:56:56.486Z,514.00
2023-04-09T04:57:56.502Z,523.00
2023-04-09T04:58:56.463Z,520.00
2023-04-09T04:59:56.441Z,505.00
2023-04-09T05:00:56.471Z,522.00
2023-04-09T05:01:56.503Z,550.00
2023-04-09T05:02:56.608Z,524.00
2023-04-09T05:03:56.580Z,526.00
2023-04-09T05:04:56.367Z,526.00
2023-04-09T05:05:56.365Z,512.00
2023-04-09T05:06:56.344Z,505.00
2023-04-09T05:07:56.343Z,513.00
2023-04-09T05:08:56.331Z,520.00
2023-04-09T05:09:56.312Z,537.00
2023-04-09T05:10:56.313Z,519.00
2023-04-09T05:11:56.270Z,512.00
2023-04-09T05:12:56.263Z,512.00
2023-04-09T05:13:56.259Z,532.00
2023-04-09T05:14:56.279Z,511.00
2023-04-09T05:15:56.244Z,492.00
2023-04-09T05:16:56.397Z,479.00
2023-04-09T05:17:56.232Z,477.00
2023-04-09T05:18:56.277Z,465.00
2023-04-09T05:19:56.174Z,433.00
2023-04-09T05:20:56.167Z,420.00
2023-04-09T05:21:56.135Z,425.00
2023-04-09T05:22:56.173Z,414.00
2023-04-09T05:23:56.115Z,406.00
2023-04-09T05:24:56.120Z,412.00
2023-04-09T05:25:56.072Z,423.00
2023-04-09T05:26:56.114Z,422.00
2023-04-09T05:27:56.078Z,404.00
2023-04-09T05:28:56.071Z,401.00
2023-04-09T05:29:56.050Z,399.00
2023-04-09T05:30:56.127Z,395.00
2023-04-09T05:31:56.026Z,391.00
2023-04-09T05:32:56.051Z,382.00
2023-04-09T05:33:56.003Z,382.00
2023-04-09T05:34:56.006Z,381.00
2023-04-09T05:35:55.979Z,379.00
2023-04-09T05:36:55.960Z,377.00
2023-04-09T05:37:55.967Z,376.00
2023-04-09T05:38:57.139Z,375.00
2023-04-09T05:39:55.899Z,371.00
2023-04-09T05:40:55.925Z,372.00
2023-04-09T05:41:55.943Z,370.00
2023-04-09T05:42:55.911Z,371.00
2023-04-09T05:43:55.861Z,369.00
2023-04-09T05:44:55.871Z,372.00
2023-04-09T05:45:55.897Z,374.00
2023-04-09T05:46:55.850Z,382.00
2023-04-09T05:47:55.887Z,380.00
2023-04-09T05:48:55.810Z,381.00
2023-04-09T05:49:55.812Z,387.00
2023-04-09T05:50:56.130Z,387.00
2023-04-09T05:51:55.785Z,384.00
2023-04-09T05:52:55.762Z,378.00
2023-04-09T05:53:55.756Z,379.00
2023-04-09T05:54:55.744Z,383.00
2023-04-09T05:55:55.714Z,386.00
2023-04-09T05:56:55.688Z,392.00
2023-04-09T05:57:55.693Z,387.00
2023-04-09T05:58:55.656Z,389.00
2023-04-09T05:59:55.668Z,383.00
2023-04-09T06:00:55.646Z,381.00
2023-04-09T06:01:55.754Z,384.00
2023-04-09T06:02:55.731Z,398.00
2023-04-09T06:03:58.067Z,406.00
2023-04-09T06:04:55.650Z,404.00
2023-04-09T06:05:55.591Z,404.00
2023-04-09T06:06:55.595Z,412.00
2023-04-09T06:07:55.558Z,393.00
2023-04-09T06:08:55.579Z,391.00
2023-04-09T06:09:55.559Z,384.00
2023-04-09T06:10:55.506Z,384.00
2023-04-09T06:11:55.530Z,373.00
2023-04-09T06:12:55.503Z,370.00
2023-04-09T06:13:55.481Z,374.00
2023-04-09T06:14:55.488Z,372.00
2023-04-09T06:15:55.526Z,371.00
2023-04-09T06:16:55.445Z,367.00
2023-04-09T06:17:57.477Z,369.00
2023-04-09T06:18:55.401Z,370.00
2023-04-09T06:19:55.422Z,370.00
2023-04-09T06:20:55.375Z,369.00
2023-04-09T06:21:55.392Z,372.00
2023-04-09T06:22:55.358Z,366.00
2023-04-09T06:23:55.364Z,348.00
2023-04-09T06:24:55.330Z,342.00
2023-04-09T06:25:55.338Z,351.00
2023-04-09T06:26:55.331Z,345.00
2023-04-09T06:27:55.298Z,346.00
2023-04-09T06:28:55.271Z,343.00
2023-04-09T06:29:55.282Z,343.00
2023-04-09T06:30:55.321Z,349.00
2023-04-09T06:31:55.237Z,353.00
2023-04-09T06:32:55.623Z,404.00
2023-04-09T06:33:55.702Z,410.00
2023-04-09T06:34:55.234Z,393.00
2023-04-09T06:35:55.239Z,391.00
2023-04-09T06:36:55.176Z,397.00
2023-04-09T06:37:55.153Z,359.00
2023-04-09T06:38:55.178Z,345.00
2023-04-09T06:40:00.945Z,339.00
2023-04-09T06:40:55.112Z,340.00
2023-04-09T06:41:55.139Z,338.00
2023-04-09T06:42:55.098Z,338.00
2023-04-09T06:43:55.113Z,340.00
2023-04-09T06:44:55.093Z,338.00
2023-04-09T06:45:55.111Z,337.00
2023-04-09T06:46:55.104Z,340.00
2023-04-09T06:47:55.044Z,339.00
2023-04-09T06:48:55.012Z,336.00
2023-04-09T06:49:55.012Z,346.00
2023-04-09T06:50:55.003Z,352.00
2023-04-09T06:51:54.981Z,345.00
2023-04-09T06:52:54.953Z,341.00
2023-04-09T06:53:55.243Z,353.00
2023-04-09T06:54:54.947Z,382.00
2023-04-09T06:55:56.645Z,391.00
2023-04-09T06:56:54.915Z,395.00
2023-04-09T06:57:54.928Z,375.00
2023-04-09T06:58:54.881Z,351.00
2023-04-09T06:59:54.903Z,346.00
2023-04-09T07:00:54.848Z,334.00
2023-04-09T07:01:54.924Z,428.00
2023-04-09T07:02:54.961Z,412.00
2023-04-09T07:03:55.041Z,403.00
2023-04-09T07:04:54.818Z,441.00
2023-04-09T07:05:54.834Z,375.00
2023-04-09T07:06:54.780Z,347.00
2023-04-09T07:07:54.781Z,338.00
2023-04-09T07:08:55.009Z,340.00
2023-04-09T07:09:54.740Z,337.00
2023-04-09T07:10:54.735Z,334.00
2023-04-09T07:11:54.747Z,333.00
2023-04-09T07:12:54.712Z,331.00
2023-04-09T07:13:54.947Z,329.00
2023-04-09T07:14:54.675Z,326.00
2023-04-09T07:15:54.683Z,333.00
2023-04-09T07:16:54.659Z,333.00
2023-04-09T07:17:54.700Z,333.00
2023-04-09T07:18:54.613Z,333.00
2023-04-09T07:19:54.638Z,328.00
2023-04-09T07:20:54.593Z,334.00
2023-04-09T07:21:54.599Z,380.00
2023-04-09T07:22:54.582Z,366.00
2023-04-09T07:23:54.803Z,365.00
2023-04-09T07:24:54.557Z,332.00
2023-04-09T07:25:54.520Z,325.00
2023-04-09T07:26:54.543Z,332.00
2023-04-09T07:27:54.514Z,330.00
2023-04-09T07:28:54.499Z,388.00
2023-04-09T07:29:54.493Z,424.00
2023-04-09T07:30:54.470Z,416.00
2023-04-09T07:31:54.538Z,439.00
2023-04-09T07:32:54.543Z,381.00
2023-04-09T07:33:54.793Z,401.00
2023-04-09T07:34:54.451Z,343.00
2023-04-09T07:35:55.552Z,335.00
2023-04-09T07:36:54.386Z,334.00
2023-04-09T07:37:54.396Z,420.00
2023-04-09T07:38:54.737Z,436.00
2023-04-09T07:39:54.422Z,452.00
2023-04-09T07:40:54.342Z,354.00
2023-04-09T07:41:54.350Z,349.00
2023-04-09T07:42:54.304Z,347.00
2023-04-09T07:43:54.319Z,444.00
2023-04-09T07:44:54.278Z,455.00
2023-04-09T07:45:54.291Z,350.00
2023-04-09T07:46:54.315Z,446.00
2023-04-09T07:47:54.260Z,442.00
2023-04-09T07:48:54.617Z,378.00
2023-04-09T07:49:54.244Z,385.00
2023-04-09T07:50:54.229Z,449.00
2023-04-09T07:51:54.218Z,459.00
2023-04-09T07:52:54.389Z,351.00
2023-04-09T07:53:54.181Z,345.00
2023-04-09T07:54:54.184Z,344.00
2023-04-09T07:55:54.160Z,334.00
2023-04-09T07:56:54.125Z,320.00
2023-04-09T07:57:54.151Z,317.00
2023-04-09T07:58:54.271Z,318.00
2023-04-09T07:59:54.107Z,314.00
2023-04-09T08:00:54.080Z,323.00
2023-04-09T08:01:54.171Z,326.00
2023-04-09T08:02:54.272Z,317.00
2023-04-09T08:03:54.200Z,326.00
2023-04-09T08:04:54.208Z,321.00
2023-04-09T08:05:54.029Z,323.00
2023-04-09T08:06:54.041Z,331.00
2023-04-09T08:07:53.992Z,372.00
2023-04-09T08:08:54.340Z,368.00
2023-04-09T08:09:53.949Z,366.00
2023-04-09T08:10:53.970Z,369.00
2023-04-09T08:11:53.952Z,385.00
2023-04-09T08:12:53.927Z,391.00
2023-04-09T08:13:53.909Z,457.00
2023-04-09T08:14:53.888Z,335.00
2023-04-09T08:15:53.897Z,350.00
2023-04-09T08:16:53.945Z,339.00
2023-04-09T08:17:53.904Z,330.00
2023-04-09T08:18:53.945Z,326.00
2023-04-09T08:19:53.817Z,356.00
2023-04-09T08:20:53.834Z,401.00
2023-04-09T08:21:53.813Z,370.00
2023-04-09T08:22:53.917Z,370.00
2023-04-09T08:23:53.801Z,345.00
2023-04-09T08:24:53.787Z,370.00
2023-04-09T08:25:53.761Z,353.00
2023-04-09T08:26:53.747Z,346.00
2023-04-09T08:27:53.738Z,343.00
2023-04-09T08:28:54.018Z,336.00
2023-04-09T08:29:53.718Z,276.00
2023-04-09T08:30:53.690Z,268.00
2023-04-09T08:31:53.703Z,265.00
2023-04-09T08:32:53.696Z,284.00
2023-04-09T08:33:53.660Z,291.00
2023-04-09T08:34:53.634Z,301.00
2023-04-09T08:35:53.630Z,308.00
2023-04-09T08:36:53.667Z,329.00
2023-04-09T08:37:53.607Z,333.00
2023-04-09T08:38:53.666Z,340.00
2023-04-09T08:39:53.563Z,340.00
2023-04-09T08:40:53.580Z,340.00
2023-04-09T08:41:53.562Z,337.00
2023-04-09T08:42:53.523Z,330.00
2023-04-09T08:44:53.483Z,342.00
2023-04-09T08:45:53.517Z,349.00
2023-04-09T08:46:53.461Z,356.00
2023-04-09T08:47:53.498Z,356.00
2023-04-09T08:48:53.906Z,356.00
2023-04-09T08:49:53.427Z,356.00
2023-04-09T08:50:53.448Z,356.00
2023-04-09T08:51:53.413Z,357.00
2023-04-09T08:52:53.409Z,356.00
2023-04-09T08:53:53.396Z,356.00
2023-04-09T08:54:53.491Z,356.00
2023-04-09T08:55:53.338Z,358.00
2023-04-09T08:56:53.335Z,360.00
2023-04-09T08:57:53.343Z,359.00
2023-04-09T08:58:53.506Z,357.00
2023-04-09T08:59:53.291Z,360.00
2023-04-09T09:00:53.293Z,361.00
2023-04-09T09:01:53.304Z,362.00
2023-04-09T09:02:53.392Z,361.00
2023-04-09T09:03:53.325Z,362.00
2023-04-09T09:04:53.269Z,364.00
2023-04-09T09:05:53.208Z,366.00
2023-04-09T09:06:55.366Z,363.00
2023-04-09T09:07:53.209Z,360.00
2023-04-09T09:08:53.400Z,358.00
2023-04-09T09:09:53.172Z,359.00
2023-04-09T09:10:53.156Z,361.00
2023-04-09T09:11:53.159Z,362.00
2023-04-09T09:12:53.144Z,360.00
2023-04-09T09:13:53.161Z,360.00
2023-04-09T09:14:53.149Z,362.00
2023-04-09T09:15:53.087Z,364.00
2023-04-09T09:16:53.123Z,363.00
2023-04-09T09:17:53.119Z,364.00
2023-04-09T09:18:54.160Z,366.00
2023-04-09T09:19:53.031Z,368.00
2023-04-09T09:20:53.086Z,367.00
2023-04-09T09:21:53.012Z,365.00
2023-04-09T09:22:54.975Z,365.00
2023-04-09T09:23:53.012Z,365.00
2023-04-09T09:24:53.019Z,367.00
2023-04-09T09:25:53.029Z,366.00
2023-04-09T09:26:52.961Z,369.00
2023-04-09T09:27:52.970Z,369.00
2023-04-09T09:28:53.070Z,371.00
2023-04-09T09:29:52.900Z,372.00
2023-04-09T09:30:52.954Z,372.00
2023-04-09T09:31:52.918Z,370.00
2023-04-09T09:32:52.945Z,370.00
2023-04-09T09:33:52.872Z,375.00
2023-04-09T09:34:52.856Z,377.00
2023-04-09T09:35:52.855Z,377.00
2023-04-09T09:36:52.884Z,375.00
2023-04-09T09:37:52.873Z,378.00
2023-04-09T09:38:53.018Z,379.00
2023-04-09T09:39:52.798Z,381.00
2023-04-09T09:40:52.805Z,382.00
2023-04-09T09:41:52.737Z,382.00
2023-04-09T09:42:52.786Z,381.00
2023-04-09T09:43:52.747Z,383.00
2023-04-09T09:44:52.706Z,382.00
2023-04-09T09:45:52.791Z,379.00
2023-04-09T09:46:52.692Z,381.00
2023-04-09T09:47:52.749Z,379.00
2023-04-09T09:48:52.895Z,378.00
2023-04-09T09:49:52.719Z,378.00
2023-04-09T09:50:52.633Z,379.00
2023-04-09T09:51:52.636Z,381.00
2023-04-09T09:52:52.591Z,381.00
2023-04-09T09:53:52.603Z,381.00
2023-04-09T09:54:52.601Z,378.00
2023-04-09T09:55:52.578Z,378.00
2023-04-09T09:56:52.591Z,377.00
2023-04-09T09:57:52.543Z,379.00
2023-04-09T09:58:52.837Z,376.00
2023-04-09T09:59:52.517Z,378.00
2023-04-09T10:00:52.545Z,381.00
2023-04-09T10:01:52.628Z,380.00
2023-04-09T10:02:52.551Z,382.00
2023-04-09T10:03:52.455Z,382.00
2023-04-09T10:04:52.571Z,379.00
2023-04-09T10:05:52.442Z,379.00
2023-04-09T10:06:53.626Z,377.00
2023-04-09T10:07:52.421Z,375.00
2023-04-09T10:08:52.507Z,377.00
2023-04-09T10:09:52.379Z,379.00
2023-04-09T10:10:52.382Z,381.00
2023-04-09T10:11:52.377Z,380.00
2023-04-09T10:12:52.368Z,379.00
2023-04-09T10:13:53.890Z,379.00
2023-04-09T10:14:52.326Z,379.00
2023-04-09T10:15:52.356Z,379.00
2023-04-09T10:16:52.322Z,381.00
2023-04-09T10:17:52.327Z,382.00
2023-04-09T10:18:52.438Z,381.00
2023-04-09T10:19:52.248Z,382.00
2023-04-09T10:20:52.234Z,384.00
2023-04-09T10:21:52.232Z,382.00
2023-04-09T10:22:52.216Z,382.00
2023-04-09T10:23:52.190Z,382.00
2023-04-09T10:24:52.203Z,382.00
2023-04-09T10:25:52.156Z,385.00
2023-04-09T10:26:52.156Z,388.00
2023-04-09T10:27:52.153Z,390.00
2023-04-09T10:28:52.290Z,390.00
2023-04-09T10:29:52.111Z,390.00
2023-04-09T10:30:52.155Z,391.00
2023-04-09T10:31:52.101Z,389.00
2023-04-09T10:32:52.082Z,389.00
2023-04-09T10:33:52.059Z,386.00
2023-04-09T10:34:52.103Z,387.00
2023-04-09T10:35:52.064Z,386.00
2023-04-09T10:36:52.024Z,385.00
2023-04-09T10:37:52.031Z,388.00
2023-04-09T10:38:52.273Z,390.00
2023-04-09T10:39:51.999Z,390.00
2023-04-09T10:40:51.991Z,390.00
2023-04-09T10:41:51.953Z,391.00
2023-04-09T10:42:51.986Z,394.00
2023-04-09T10:43:51.947Z,394.00
2023-04-09T10:44:51.952Z,397.00
2023-04-09T10:45:51.911Z,397.00
2023-04-09T10:46:51.967Z,396.00
2023-04-09T10:47:51.920Z,397.00
2023-04-09T10:48:52.039Z,397.00
2023-04-09T10:49:51.869Z,395.00
2023-04-09T10:50:51.880Z,392.00
2023-04-09T10:51:51.902Z,391.00
2023-04-09T10:52:51.831Z,390.00
2023-04-09T10:53:51.840Z,389.00
2023-04-09T10:54:51.797Z,387.00
2023-04-09T10:55:51.809Z,387.00
2023-04-09T10:56:51.809Z,388.00
2023-04-09T10:57:51.767Z,390.00
2023-04-09T10:58:52.036Z,389.00
2023-04-09T10:59:51.776Z,392.00
2023-04-09T11:00:51.722Z,388.00
2023-04-09T11:01:51.791Z,389.00
2023-04-09T11:02:52.145Z,391.00
2023-04-09T11:03:51.740Z,387.00
2023-04-09T11:04:51.720Z,387.00
2023-04-09T11:05:51.730Z,387.00
2023-04-09T11:06:51.657Z,387.00
2023-04-09T11:07:51.626Z,390.00
2023-04-09T11:08:51.809Z,392.00
2023-04-09T11:09:51.627Z,392.00
2023-04-09T11:10:52.371Z,393.00
2023-04-09T11:11:51.657Z,391.00
2023-04-09T11:12:51.587Z,389.00
2023-04-09T11:13:51.553Z,390.00
2023-04-09T11:14:51.538Z,390.00
2023-04-09T11:15:51.589Z,389.00
2023-04-09T11:16:51.583Z,390.00
2023-04-09T11:17:51.599Z,391.00
2023-04-09T11:18:51.759Z,392.00
2023-04-09T11:19:51.511Z,391.00
2023-04-09T11:20:51.476Z,392.00
2023-04-09T11:21:51.499Z,389.00
2023-04-09T11:22:51.546Z,388.00
2023-04-09T11:23:51.432Z,388.00
2023-04-09T11:24:51.489Z,389.00
2023-04-09T11:25:51.391Z,393.00
2023-04-09T11:26:51.423Z,395.00
2023-04-09T11:27:51.375Z,396.00
2023-04-09T11:28:51.636Z,397.00
2023-04-09T11:29:51.353Z,395.00
2023-04-09T11:30:51.514Z,395.00
2023-04-09T11:31:51.596Z,397.00
2023-04-09T11:32:51.403Z,397.00
2023-04-09T11:33:51.280Z,395.00
2023-04-09T11:34:51.392Z,397.00
2023-04-09T11:35:51.334Z,398.00
2023-04-09T11:36:51.261Z,396.00
2023-04-09T11:37:51.228Z,395.00
2023-04-09T11:38:51.408Z,394.00
2023-04-09T11:39:51.207Z,395.00
2023-04-09T11:40:51.221Z,392.00
2023-04-09T11:41:51.184Z,391.00
2023-04-09T11:42:51.166Z,393.00
2023-04-09T11:43:51.179Z,394.00
2023-04-09T11:44:51.199Z,394.00
2023-04-09T11:45:51.122Z,395.00
2023-04-09T11:46:51.195Z,393.00
2023-04-09T11:47:51.156Z,391.00
2023-04-09T11:48:51.273Z,392.00
2023-04-09T11:49:51.106Z,393.00
2023-04-09T11:50:51.104Z,394.00
2023-04-09T11:51:51.041Z,393.00
2023-04-09T11:52:51.051Z,391.00
2023-04-09T11:53:51.037Z,391.00
2023-04-09T11:54:51.023Z,392.00
2023-04-09T11:55:51.015Z,391.00
2023-04-09T11:56:51.010Z,395.00
2023-04-09T11:57:51.027Z,392.00
2023-04-09T11:58:51.163Z,394.00
2023-04-09T11:59:50.956Z,393.00
2023-04-09T12:00:50.962Z,392.00
2023-04-09T12:01:51.060Z,390.00
2023-04-09T12:02:51.231Z,390.00
2023-04-09T12:03:50.971Z,391.00
2023-04-09T12:04:51.177Z,388.00
2023-04-09T12:05:51.383Z,389.00
2023-04-09T12:06:50.860Z,389.00
2023-04-09T12:07:56.401Z,391.00
2023-04-09T12:08:51.004Z,392.00
2023-04-09T12:09:50.846Z,394.00
2023-04-09T12:10:53.080Z,394.00
2023-04-09T12:11:50.804Z,392.00
2023-04-09T12:12:50.807Z,390.00
2023-04-09T12:13:50.775Z,392.00
2023-04-09T12:14:50.835Z,394.00
2023-04-09T12:15:50.766Z,396.00
2023-04-09T12:16:50.793Z,397.00
2023-04-09T12:17:50.808Z,397.00
2023-04-09T12:18:50.857Z,399.00
2023-04-09T12:19:50.733Z,402.00
2023-04-09T12:20:50.706Z,405.00
2023-04-09T12:21:50.661Z,405.00
2023-04-09T12:22:50.658Z,404.00
2023-04-09T12:23:50.661Z,405.00
2023-04-09T12:24:50.648Z,405.00
2023-04-09T12:25:50.644Z,404.00
2023-04-09T12:26:50.617Z,405.00
2023-04-09T12:27:50.618Z,406.00
2023-04-09T12:28:50.778Z,406.00